Aérodrome :
LOGIN :

S'inscrire | Disclaimer

   EN    FR    IT 

 










Légende :    VFR   VFR Marginal   IFR   IFR Intensif   IFR Très Intensif
Visi : 
Plafond : 
>= 8 km
>= 3000ft
5 à 8 km
1000 à 3000 ft
1500m à 5 km
500 à 1000 ft
800 à 1500m
200 à 500 ft
< 800m
< 200 ft
Symboles :   Orages  Brouillard  Fortes neiges  Fortes précipitations  Vent > 20 kt
SIGMETs :   Divers  Orages  Givrage  Turbulence  Onde Orograph.  Cendres Volcan.






- Altitude de l'aérodrome : 364 ft


LFAQ - Albert Bray

DERNIER METAR :
  • 202200Z AUTO 02011KT CAVOK 17/15 Q1006

METARs EXPIRÉS :
  • 202130Z AUTO 02012KT CAVOK 17/15 Q1006
  • 202100Z AUTO 03014KT CAVOK 18/16 Q1006
  • 202030Z AUTO 02011KT CAVOK 18/16 Q1006
  • 202000Z AUTO 03011KT CAVOK 19/16 Q1006
  • 201930Z AUTO 01007KT CAVOK 20/16 Q1006

TAF TAF LFAQ
Valide du 20 à 15h jusqu'au 21 à 00h UTC


201400Z 2015/2024 06005KT 9999 BKN030
TEMPO 2022/2024 3000 SHRA BKN030CB



MET'MAP, la Météo Aéronautique d'un coup d'oeil ! - Copyright ORBIFLY Décembre 2007 - Disclaimer

ORBIFLY MET'MAP TEAM :

Programmation & Développement : Alexandra Zaïnal
Sur une idée originale de : Baudouin d'Aumeries
Assistance à la programmation : Marc-Olivier Méhu
Soutien technique & logistique : Manuel Goepfert

Contact : metmap@orbifly.com




SOURCES & CREDITS :

   NOAA